sensor_id;sensor_type;location;lat;lon;timestamp;P1;durP1;ratioP1;P2;durP2;ratioP2
3801;SDS011;1916;51.798;12.246;2022-07-06T00:00:49;3.20;;;1.90;;
3801;SDS011;1916;51.798;12.246;2022-07-06T00:02:51;2.60;;;1.73;;
3801;SDS011;1916;51.798;12.246;2022-07-06T00:04:54;3.47;;;2.17;;
3801;SDS011;1916;51.798;12.246;2022-07-06T00:06:56;2.03;;;1.90;;
3801;SDS011;1916;51.798;12.246;2022-07-06T00:08:59;5.43;;;1.70;;
3801;SDS011;1916;51.798;12.246;2022-07-06T00:11:01;2.90;;;2.10;;
3801;SDS011;1916;51.798;12.246;2022-07-06T00:13:03;4.03;;;2.50;;
3801;SDS011;1916;51.798;12.246;2022-07-06T00:15:05;2.93;;;2.23;;
3801;SDS011;1916;51.798;12.246;2022-07-06T00:17:08;3.37;;;2.30;;
3801;SDS011;1916;51.798;12.246;2022-07-06T00:19:10;4.87;;;2.60;;
3801;SDS011;1916;51.798;12.246;2022-07-06T00:21:12;4.20;;;2.50;;
3801;SDS011;1916;51.798;12.246;2022-07-06T00:23:14;4.53;;;2.90;;
3801;SDS011;1916;51.798;12.246;2022-07-06T00:25:17;4.27;;;2.60;;
3801;SDS011;1916;51.798;12.246;2022-07-06T00:27:19;2.40;;;2.20;;
3801;SDS011;1916;51.798;12.246;2022-07-06T00:29:21;4.47;;;2.20;;
3801;SDS011;1916;51.798;12.246;2022-07-06T00:31:23;3.10;;;2.53;;
3801;SDS011;1916;51.798;12.246;2022-07-06T00:33:26;2.63;;;2.40;;
3801;SDS011;1916;51.798;12.246;2022-07-06T00:35:28;2.50;;;2.30;;
3801;SDS011;1916;51.798;12.246;2022-07-06T00:37:30;5.27;;;2.73;;
3801;SDS011;1916;51.798;12.246;2022-07-06T00:39:33;4.97;;;2.23;;
3801;SDS011;1916;51.798;12.246;2022-07-06T00:41:35;4.60;;;2.90;;
3801;SDS011;1916;51.798;12.246;2022-07-06T00:43:48;4.53;;;2.30;;
3801;SDS011;1916;51.798;12.246;2022-07-06T00:45:57;5.03;;;2.17;;
3801;SDS011;1916;51.798;12.246;2022-07-06T00:47:59;3.23;;;2.53;;
3801;SDS011;1916;51.798;12.246;2022-07-06T00:50:03;6.20;;;2.20;;
3801;SDS011;1916;51.798;12.246;2022-07-06T00:52:24;4.37;;;2.60;;
3801;SDS011;1916;51.798;12.246;2022-07-06T00:54:27;3.60;;;2.47;;
3801;SDS011;1916;51.798;12.246;2022-07-06T00:56:32;5.83;;;3.07;;
3801;SDS011;1916;51.798;12.246;2022-07-06T00:58:34;3.20;;;2.70;;
3801;SDS011;1916;51.798;12.246;2022-07-06T01:00:36;5.43;;;2.60;;
3801;SDS011;1916;51.798;12.246;2022-07-06T01:02:40;3.37;;;3.07;;
3801;SDS011;1916;51.798;12.246;2022-07-06T01:04:42;8.30;;;4.37;;
3801;SDS011;1916;51.798;12.246;2022-07-06T01:06:45;5.60;;;3.23;;
3801;SDS011;1916;51.798;12.246;2022-07-06T01:08:47;5.97;;;2.63;;
3801;SDS011;1916;51.798;12.246;2022-07-06T01:10:50;3.33;;;2.40;;
3801;SDS011;1916;51.798;12.246;2022-07-06T01:12:53;7.50;;;2.50;;
3801;SDS011;1916;51.798;12.246;2022-07-06T01:14:55;3.07;;;2.73;;
3801;SDS011;1916;51.798;12.246;2022-07-06T01:16:58;3.27;;;2.20;;
3801;SDS011;1916;51.798;12.246;2022-07-06T01:19:00;3.43;;;2.77;;
3801;SDS011;1916;51.798;12.246;2022-07-06T01:21:10;4.20;;;2.83;;
3801;SDS011;1916;51.798;12.246;2022-07-06T01:23:13;4.53;;;2.60;;
3801;SDS011;1916;51.798;12.246;2022-07-06T01:25:16;5.00;;;2.60;;
3801;SDS011;1916;51.798;12.246;2022-07-06T01:27:18;3.90;;;2.50;;
3801;SDS011;1916;51.798;12.246;2022-07-06T01:29:21;4.37;;;3.13;;
3801;SDS011;1916;51.798;12.246;2022-07-06T01:31:23;3.17;;;2.87;;
3801;SDS011;1916;51.798;12.246;2022-07-06T01:33:26;3.17;;;2.27;;
3801;SDS011;1916;51.798;12.246;2022-07-06T01:35:29;6.27;;;2.70;;
3801;SDS011;1916;51.798;12.246;2022-07-06T01:37:31;2.53;;;2.33;;
3801;SDS011;1916;51.798;12.246;2022-07-06T01:39:33;3.53;;;2.83;;
3801;SDS011;1916;51.798;12.246;2022-07-06T01:41:36;4.13;;;2.60;;
3801;SDS011;1916;51.798;12.246;2022-07-06T01:43:38;3.40;;;2.67;;
3801;SDS011;1916;51.798;12.246;2022-07-06T01:45:40;3.30;;;2.33;;
3801;SDS011;1916;51.798;12.246;2022-07-06T01:47:43;6.63;;;2.50;;
3801;SDS011;1916;51.798;12.246;2022-07-06T01:49:45;5.10;;;2.60;;
3801;SDS011;1916;51.798;12.246;2022-07-06T01:51:47;3.60;;;2.50;;
3801;SDS011;1916;51.798;12.246;2022-07-06T01:53:50;6.93;;;3.03;;
3801;SDS011;1916;51.798;12.246;2022-07-06T01:55:54;5.20;;;2.63;;
3801;SDS011;1916;51.798;12.246;2022-07-06T01:57:56;4.50;;;2.73;;
3801;SDS011;1916;51.798;12.246;2022-07-06T02:00:00;3.00;;;2.40;;
3801;SDS011;1916;51.798;12.246;2022-07-06T02:02:13;4.20;;;2.27;;
3801;SDS011;1916;51.798;12.246;2022-07-06T02:04:15;7.17;;;2.60;;
3801;SDS011;1916;51.798;12.246;2022-07-06T02:06:18;3.17;;;2.20;;
3801;SDS011;1916;51.798;12.246;2022-07-06T02:08:22;6.37;;;2.63;;
3801;SDS011;1916;51.798;12.246;2022-07-06T02:10:25;7.30;;;2.53;;
3801;SDS011;1916;51.798;12.246;2022-07-06T02:12:27;3.13;;;2.40;;
3801;SDS011;1916;51.798;12.246;2022-07-06T02:14:29;5.27;;;2.33;;
3801;SDS011;1916;51.798;12.246;2022-07-06T02:16:32;5.07;;;2.50;;
3801;SDS011;1916;51.798;12.246;2022-07-06T02:18:34;3.43;;;2.43;;
3801;SDS011;1916;51.798;12.246;2022-07-06T02:20:36;4.07;;;2.60;;
3801;SDS011;1916;51.798;12.246;2022-07-06T02:22:39;4.70;;;2.43;;
3801;SDS011;1916;51.798;12.246;2022-07-06T02:24:42;6.47;;;2.97;;
3801;SDS011;1916;51.798;12.246;2022-07-06T02:26:44;3.67;;;2.57;;
3801;SDS011;1916;51.798;12.246;2022-07-06T02:28:46;6.80;;;2.70;;
3801;SDS011;1916;51.798;12.246;2022-07-06T02:30:50;3.20;;;2.67;;
3801;SDS011;1916;51.798;12.246;2022-07-06T02:32:52;7.87;;;2.77;;
3801;SDS011;1916;51.798;12.246;2022-07-06T02:34:54;4.10;;;2.70;;
3801;SDS011;1916;51.798;12.246;2022-07-06T02:36:57;2.77;;;2.50;;
3801;SDS011;1916;51.798;12.246;2022-07-06T02:38:59;3.63;;;2.50;;
3801;SDS011;1916;51.798;12.246;2022-07-06T02:41:02;3.17;;;2.80;;
3801;SDS011;1916;51.798;12.246;2022-07-06T02:43:06;3.63;;;2.10;;
3801;SDS011;1916;51.798;12.246;2022-07-06T02:45:10;2.60;;;2.23;;
3801;SDS011;1916;51.798;12.246;2022-07-06T02:47:12;5.67;;;2.83;;
3801;SDS011;1916;51.798;12.246;2022-07-06T02:49:14;5.10;;;2.33;;
3801;SDS011;1916;51.798;12.246;2022-07-06T02:51:16;4.83;;;2.30;;
3801;SDS011;1916;51.798;12.246;2022-07-06T02:53:19;4.30;;;2.10;;
3801;SDS011;1916;51.798;12.246;2022-07-06T02:55:25;4.80;;;2.73;;
3801;SDS011;1916;51.798;12.246;2022-07-06T02:57:28;3.87;;;2.50;;
3801;SDS011;1916;51.798;12.246;2022-07-06T02:59:31;2.60;;;2.40;;
3801;SDS011;1916;51.798;12.246;2022-07-06T03:01:33;6.00;;;2.50;;
3801;SDS011;1916;51.798;12.246;2022-07-06T03:03:36;2.83;;;2.33;;
3801;SDS011;1916;51.798;12.246;2022-07-06T03:05:39;3.40;;;2.10;;
3801;SDS011;1916;51.798;12.246;2022-07-06T03:07:41;3.67;;;2.73;;
3801;SDS011;1916;51.798;12.246;2022-07-06T03:09:44;4.80;;;2.77;;
3801;SDS011;1916;51.798;12.246;2022-07-06T03:11:47;5.27;;;2.70;;
3801;SDS011;1916;51.798;12.246;2022-07-06T03:13:49;5.73;;;2.67;;
3801;SDS011;1916;51.798;12.246;2022-07-06T03:15:52;6.07;;;2.67;;
3801;SDS011;1916;51.798;12.246;2022-07-06T03:17:54;3.20;;;2.90;;
3801;SDS011;1916;51.798;12.246;2022-07-06T03:19:57;2.53;;;2.30;;
3801;SDS011;1916;51.798;12.246;2022-07-06T03:21:59;5.50;;;2.50;;
3801;SDS011;1916;51.798;12.246;2022-07-06T03:24:02;6.37;;;2.63;;
3801;SDS011;1916;51.798;12.246;2022-07-06T03:26:04;4.70;;;2.83;;
3801;SDS011;1916;51.798;12.246;2022-07-06T03:28:07;3.63;;;2.43;;
3801;SDS011;1916;51.798;12.246;2022-07-06T03:30:09;13.57;;;3.07;;
3801;SDS011;1916;51.798;12.246;2022-07-06T03:32:19;4.40;;;2.53;;
3801;SDS011;1916;51.798;12.246;2022-07-06T03:34:21;5.10;;;2.60;;
3801;SDS011;1916;51.798;12.246;2022-07-06T03:36:24;4.77;;;2.90;;
3801;SDS011;1916;51.798;12.246;2022-07-06T03:38:27;3.00;;;2.43;;
3801;SDS011;1916;51.798;12.246;2022-07-06T03:40:29;3.60;;;2.33;;
3801;SDS011;1916;51.798;12.246;2022-07-06T03:42:31;4.43;;;2.70;;
3801;SDS011;1916;51.798;12.246;2022-07-06T03:44:33;5.83;;;2.67;;
3801;SDS011;1916;51.798;12.246;2022-07-06T03:46:36;4.30;;;2.63;;
3801;SDS011;1916;51.798;12.246;2022-07-06T03:48:39;4.20;;;2.90;;
3801;SDS011;1916;51.798;12.246;2022-07-06T03:50:42;4.17;;;3.70;;
3801;SDS011;1916;51.798;12.246;2022-07-06T03:52:45;3.20;;;2.90;;
3801;SDS011;1916;51.798;12.246;2022-07-06T03:54:47;5.77;;;2.60;;
3801;SDS011;1916;51.798;12.246;2022-07-06T03:56:54;5.60;;;2.57;;
3801;SDS011;1916;51.798;12.246;2022-07-06T03:58:56;10.83;;;2.70;;
3801;SDS011;1916;51.798;12.246;2022-07-06T04:00:59;4.33;;;2.40;;
3801;SDS011;1916;51.798;12.246;2022-07-06T04:03:02;3.70;;;2.40;;
3801;SDS011;1916;51.798;12.246;2022-07-06T04:05:09;5.50;;;2.27;;
3801;SDS011;1916;51.798;12.246;2022-07-06T04:07:11;6.90;;;2.40;;
3801;SDS011;1916;51.798;12.246;2022-07-06T04:09:14;7.83;;;2.30;;
3801;SDS011;1916;51.798;12.246;2022-07-06T04:11:17;8.70;;;2.90;;
3801;SDS011;1916;51.798;12.246;2022-07-06T04:13:19;6.03;;;3.00;;
3801;SDS011;1916;51.798;12.246;2022-07-06T04:15:21;5.17;;;2.37;;
3801;SDS011;1916;51.798;12.246;2022-07-06T04:17:24;5.00;;;2.87;;
3801;SDS011;1916;51.798;12.246;2022-07-06T04:19:44;8.20;;;3.10;;
3801;SDS011;1916;51.798;12.246;2022-07-06T04:21:47;4.90;;;2.73;;
3801;SDS011;1916;51.798;12.246;2022-07-06T04:23:49;4.30;;;2.40;;
3801;SDS011;1916;51.798;12.246;2022-07-06T04:25:52;2.00;;;1.90;;
3801;SDS011;1916;51.798;12.246;2022-07-06T04:27:54;4.13;;;2.20;;
3801;SDS011;1916;51.798;12.246;2022-07-06T04:29:56;3.93;;;2.70;;
3801;SDS011;1916;51.798;12.246;2022-07-06T04:31:59;2.67;;;2.27;;
3801;SDS011;1916;51.798;12.246;2022-07-06T04:34:01;4.40;;;2.50;;
3801;SDS011;1916;51.798;12.246;2022-07-06T04:36:04;3.20;;;2.50;;
3801;SDS011;1916;51.798;12.246;2022-07-06T04:38:13;2.87;;;1.90;;
3801;SDS011;1916;51.798;12.246;2022-07-06T04:40:16;8.30;;;2.47;;
3801;SDS011;1916;51.798;12.246;2022-07-06T04:42:21;3.50;;;1.80;;
3801;SDS011;1916;51.798;12.246;2022-07-06T04:44:23;2.00;;;1.80;;
3801;SDS011;1916;51.798;12.246;2022-07-06T04:46:26;2.57;;;2.17;;
3801;SDS011;1916;51.798;12.246;2022-07-06T04:48:28;2.80;;;1.87;;
3801;SDS011;1916;51.798;12.246;2022-07-06T04:50:31;6.37;;;2.23;;
3801;SDS011;1916;51.798;12.246;2022-07-06T04:52:44;2.90;;;2.30;;
3801;SDS011;1916;51.798;12.246;2022-07-06T04:54:47;4.37;;;1.90;;
3801;SDS011;1916;51.798;12.246;2022-07-06T04:56:50;4.43;;;2.27;;
3801;SDS011;1916;51.798;12.246;2022-07-06T04:58:52;4.30;;;2.03;;
3801;SDS011;1916;51.798;12.246;2022-07-06T05:00:56;5.60;;;2.20;;
3801;SDS011;1916;51.798;12.246;2022-07-06T05:02:59;5.80;;;2.17;;
3801;SDS011;1916;51.798;12.246;2022-07-06T05:05:02;3.40;;;2.13;;
3801;SDS011;1916;51.798;12.246;2022-07-06T05:07:05;4.83;;;1.70;;
3801;SDS011;1916;51.798;12.246;2022-07-06T05:09:07;4.00;;;1.87;;
3801;SDS011;1916;51.798;12.246;2022-07-06T05:11:10;2.30;;;1.67;;
3801;SDS011;1916;51.798;12.246;2022-07-06T05:13:12;6.40;;;2.20;;
3801;SDS011;1916;51.798;12.246;2022-07-06T05:15:15;3.73;;;1.80;;
3801;SDS011;1916;51.798;12.246;2022-07-06T05:17:17;2.37;;;1.77;;
3801;SDS011;1916;51.798;12.246;2022-07-06T05:19:19;5.90;;;1.80;;
3801;SDS011;1916;51.798;12.246;2022-07-06T05:21:22;5.10;;;1.90;;
3801;SDS011;1916;51.798;12.246;2022-07-06T05:23:25;3.90;;;1.90;;
3801;SDS011;1916;51.798;12.246;2022-07-06T05:25:29;4.73;;;1.93;;
3801;SDS011;1916;51.798;12.246;2022-07-06T05:27:32;3.50;;;1.87;;
3801;SDS011;1916;51.798;12.246;2022-07-06T05:29:34;4.50;;;2.13;;
3801;SDS011;1916;51.798;12.246;2022-07-06T05:31:37;6.23;;;2.10;;
3801;SDS011;1916;51.798;12.246;2022-07-06T05:33:39;3.10;;;1.70;;
3801;SDS011;1916;51.798;12.246;2022-07-06T05:35:42;7.83;;;2.20;;
3801;SDS011;1916;51.798;12.246;2022-07-06T05:37:58;5.07;;;1.87;;
3801;SDS011;1916;51.798;12.246;2022-07-06T05:40:01;4.33;;;1.73;;
3801;SDS011;1916;51.798;12.246;2022-07-06T05:42:03;4.93;;;2.20;;
3801;SDS011;1916;51.798;12.246;2022-07-06T05:44:08;7.37;;;2.33;;
3801;SDS011;1916;51.798;12.246;2022-07-06T05:46:11;10.17;;;2.30;;
3801;SDS011;1916;51.798;12.246;2022-07-06T05:48:14;3.17;;;1.90;;
3801;SDS011;1916;51.798;12.246;2022-07-06T05:50:35;2.27;;;1.80;;
3801;SDS011;1916;51.798;12.246;2022-07-06T05:52:41;4.00;;;2.20;;
3801;SDS011;1916;51.798;12.246;2022-07-06T05:54:44;6.00;;;1.57;;
3801;SDS011;1916;51.798;12.246;2022-07-06T05:56:47;7.83;;;2.00;;
3801;SDS011;1916;51.798;12.246;2022-07-06T05:58:49;9.20;;;2.30;;
3801;SDS011;1916;51.798;12.246;2022-07-06T06:00:51;4.83;;;1.70;;
3801;SDS011;1916;51.798;12.246;2022-07-06T06:02:54;5.07;;;1.90;;
3801;SDS011;1916;51.798;12.246;2022-07-06T06:04:57;3.30;;;1.63;;
3801;SDS011;1916;51.798;12.246;2022-07-06T06:06:59;4.00;;;1.50;;
3801;SDS011;1916;51.798;12.246;2022-07-06T06:09:01;6.13;;;1.97;;
3801;SDS011;1916;51.798;12.246;2022-07-06T06:11:04;5.30;;;1.67;;
3801;SDS011;1916;51.798;12.246;2022-07-06T06:13:13;4.50;;;2.20;;
3801;SDS011;1916;51.798;12.246;2022-07-06T06:15:16;2.27;;;1.70;;
3801;SDS011;1916;51.798;12.246;2022-07-06T06:17:18;4.10;;;1.80;;
3801;SDS011;1916;51.798;12.246;2022-07-06T06:19:20;2.80;;;1.70;;
3801;SDS011;1916;51.798;12.246;2022-07-06T06:21:22;6.03;;;1.97;;
3801;SDS011;1916;51.798;12.246;2022-07-06T06:23:25;3.87;;;1.80;;
3801;SDS011;1916;51.798;12.246;2022-07-06T06:25:28;4.53;;;2.00;;
3801;SDS011;1916;51.798;12.246;2022-07-06T06:27:38;3.77;;;1.90;;
3801;SDS011;1916;51.798;12.246;2022-07-06T06:29:40;2.80;;;1.70;;
3801;SDS011;1916;51.798;12.246;2022-07-06T06:31:43;5.63;;;2.00;;
3801;SDS011;1916;51.798;12.246;2022-07-06T06:33:45;2.90;;;1.73;;
3801;SDS011;1916;51.798;12.246;2022-07-06T06:35:49;5.93;;;1.50;;
3801;SDS011;1916;51.798;12.246;2022-07-06T06:37:52;7.10;;;2.20;;
3801;SDS011;1916;51.798;12.246;2022-07-06T06:39:54;4.93;;;2.33;;
3801;SDS011;1916;51.798;12.246;2022-07-06T06:41:57;4.10;;;1.73;;
3801;SDS011;1916;51.798;12.246;2022-07-06T06:44:05;12.87;;;3.07;;
3801;SDS011;1916;51.798;12.246;2022-07-06T06:46:13;4.93;;;1.90;;
3801;SDS011;1916;51.798;12.246;2022-07-06T06:48:15;4.50;;;1.50;;
3801;SDS011;1916;51.798;12.246;2022-07-06T06:50:19;2.30;;;1.33;;
3801;SDS011;1916;51.798;12.246;2022-07-06T06:52:21;6.83;;;1.90;;
3801;SDS011;1916;51.798;12.246;2022-07-06T06:54:41;7.33;;;1.77;;
3801;SDS011;1916;51.798;12.246;2022-07-06T06:56:44;3.13;;;2.10;;
3801;SDS011;1916;51.798;12.246;2022-07-06T06:58:46;3.83;;;1.70;;
3801;SDS011;1916;51.798;12.246;2022-07-06T07:01:08;3.77;;;2.07;;
3801;SDS011;1916;51.798;12.246;2022-07-06T07:03:10;2.70;;;1.33;;
3801;SDS011;1916;51.798;12.246;2022-07-06T07:05:12;5.50;;;1.50;;
3801;SDS011;1916;51.798;12.246;2022-07-06T07:07:15;4.97;;;1.57;;
3801;SDS011;1916;51.798;12.246;2022-07-06T07:09:17;6.97;;;2.00;;
3801;SDS011;1916;51.798;12.246;2022-07-06T07:11:19;4.47;;;1.60;;
3801;SDS011;1916;51.798;12.246;2022-07-06T07:13:21;4.00;;;1.97;;
3801;SDS011;1916;51.798;12.246;2022-07-06T07:15:23;2.87;;;1.50;;
3801;SDS011;1916;51.798;12.246;2022-07-06T07:17:26;4.13;;;1.70;;
3801;SDS011;1916;51.798;12.246;2022-07-06T07:19:28;3.57;;;1.50;;
3801;SDS011;1916;51.798;12.246;2022-07-06T07:21:30;4.57;;;1.43;;
3801;SDS011;1916;51.798;12.246;2022-07-06T07:23:32;3.27;;;1.50;;
3801;SDS011;1916;51.798;12.246;2022-07-06T07:25:34;4.80;;;1.60;;
3801;SDS011;1916;51.798;12.246;2022-07-06T07:27:36;5.27;;;2.40;;
3801;SDS011;1916;51.798;12.246;2022-07-06T07:29:39;2.80;;;1.50;;
3801;SDS011;1916;51.798;12.246;2022-07-06T07:31:41;5.40;;;2.03;;
3801;SDS011;1916;51.798;12.246;2022-07-06T07:33:43;3.13;;;1.50;;
3801;SDS011;1916;51.798;12.246;2022-07-06T07:35:46;1.67;;;1.30;;
3801;SDS011;1916;51.798;12.246;2022-07-06T07:37:48;7.10;;;1.30;;
3801;SDS011;1916;51.798;12.246;2022-07-06T07:39:50;4.53;;;1.33;;
3801;SDS011;1916;51.798;12.246;2022-07-06T07:41:52;4.10;;;1.50;;
3801;SDS011;1916;51.798;12.246;2022-07-06T07:43:54;3.20;;;1.50;;
3801;SDS011;1916;51.798;12.246;2022-07-06T07:45:57;2.77;;;1.30;;
3801;SDS011;1916;51.798;12.246;2022-07-06T07:47:59;2.93;;;1.67;;
3801;SDS011;1916;51.798;12.246;2022-07-06T07:50:02;3.30;;;1.43;;
3801;SDS011;1916;51.798;12.246;2022-07-06T07:52:04;5.40;;;1.40;;
3801;SDS011;1916;51.798;12.246;2022-07-06T07:54:07;2.43;;;1.40;;
3801;SDS011;1916;51.798;12.246;2022-07-06T07:56:10;3.57;;;1.30;;
3801;SDS011;1916;51.798;12.246;2022-07-06T07:58:12;4.53;;;1.40;;
3801;SDS011;1916;51.798;12.246;2022-07-06T08:00:14;3.57;;;1.53;;
3801;SDS011;1916;51.798;12.246;2022-07-06T08:02:17;6.93;;;1.67;;
3801;SDS011;1916;51.798;12.246;2022-07-06T08:04:19;7.67;;;1.67;;
3801;SDS011;1916;51.798;12.246;2022-07-06T08:06:22;1.63;;;1.30;;
3801;SDS011;1916;51.798;12.246;2022-07-06T08:08:24;4.70;;;1.73;;
3801;SDS011;1916;51.798;12.246;2022-07-06T08:10:28;3.73;;;1.50;;
3801;SDS011;1916;51.798;12.246;2022-07-06T08:12:30;4.67;;;1.67;;
3801;SDS011;1916;51.798;12.246;2022-07-06T08:14:33;3.33;;;1.60;;
3801;SDS011;1916;51.798;12.246;2022-07-06T08:16:36;5.23;;;1.77;;
3801;SDS011;1916;51.798;12.246;2022-07-06T08:18:38;5.13;;;1.77;;
3801;SDS011;1916;51.798;12.246;2022-07-06T08:20:40;2.20;;;1.30;;
3801;SDS011;1916;51.798;12.246;2022-07-06T08:23:03;4.70;;;1.50;;
3801;SDS011;1916;51.798;12.246;2022-07-06T08:25:06;4.13;;;1.60;;
3801;SDS011;1916;51.798;12.246;2022-07-06T08:27:08;3.43;;;1.30;;
3801;SDS011;1916;51.798;12.246;2022-07-06T08:29:11;4.60;;;1.77;;
3801;SDS011;1916;51.798;12.246;2022-07-06T08:31:13;3.63;;;1.40;;
3801;SDS011;1916;51.798;12.246;2022-07-06T08:33:35;1.87;;;1.53;;
3801;SDS011;1916;51.798;12.246;2022-07-06T08:35:37;7.30;;;1.67;;
3801;SDS011;1916;51.798;12.246;2022-07-06T08:37:40;5.80;;;1.80;;
3801;SDS011;1916;51.798;12.246;2022-07-06T08:39:42;3.63;;;1.50;;
3801;SDS011;1916;51.798;12.246;2022-07-06T08:41:44;3.73;;;1.33;;
3801;SDS011;1916;51.798;12.246;2022-07-06T08:43:50;4.73;;;1.70;;
3801;SDS011;1916;51.798;12.246;2022-07-06T08:45:53;4.40;;;1.30;;
3801;SDS011;1916;51.798;12.246;2022-07-06T08:47:55;5.20;;;1.47;;
3801;SDS011;1916;51.798;12.246;2022-07-06T08:50:00;3.07;;;1.50;;
3801;SDS011;1916;51.798;12.246;2022-07-06T08:52:03;3.30;;;1.60;;
3801;SDS011;1916;51.798;12.246;2022-07-06T08:54:07;3.10;;;2.07;;
3801;SDS011;1916;51.798;12.246;2022-07-06T08:56:09;7.87;;;1.53;;
3801;SDS011;1916;51.798;12.246;2022-07-06T08:58:12;2.03;;;1.17;;
3801;SDS011;1916;51.798;12.246;2022-07-06T09:00:15;2.63;;;1.47;;
3801;SDS011;1916;51.798;12.246;2022-07-06T09:02:18;3.50;;;1.60;;
3801;SDS011;1916;51.798;12.246;2022-07-06T09:04:21;6.50;;;1.43;;
3801;SDS011;1916;51.798;12.246;2022-07-06T09:06:24;3.10;;;1.80;;
3801;SDS011;1916;51.798;12.246;2022-07-06T09:08:27;4.20;;;2.07;;
3801;SDS011;1916;51.798;12.246;2022-07-06T09:10:30;7.23;;;1.63;;
3801;SDS011;1916;51.798;12.246;2022-07-06T09:12:32;5.10;;;1.17;;
3801;SDS011;1916;51.798;12.246;2022-07-06T09:14:38;2.90;;;1.53;;
3801;SDS011;1916;51.798;12.246;2022-07-06T09:16:41;3.40;;;1.33;;
3801;SDS011;1916;51.798;12.246;2022-07-06T09:18:44;3.60;;;1.70;;
3801;SDS011;1916;51.798;12.246;2022-07-06T09:20:48;4.13;;;1.50;;
3801;SDS011;1916;51.798;12.246;2022-07-06T09:22:50;1.90;;;1.40;;
3801;SDS011;1916;51.798;12.246;2022-07-06T09:24:52;2.03;;;1.60;;
3801;SDS011;1916;51.798;12.246;2022-07-06T09:26:55;2.67;;;1.37;;
3801;SDS011;1916;51.798;12.246;2022-07-06T09:28:59;10.47;;;1.60;;
3801;SDS011;1916;51.798;12.246;2022-07-06T09:31:06;3.23;;;1.63;;
3801;SDS011;1916;51.798;12.246;2022-07-06T09:33:19;2.93;;;1.27;;
3801;SDS011;1916;51.798;12.246;2022-07-06T09:35:29;1.70;;;1.20;;
3801;SDS011;1916;51.798;12.246;2022-07-06T09:37:32;7.83;;;1.60;;
3801;SDS011;1916;51.798;12.246;2022-07-06T09:39:34;4.83;;;1.27;;
3801;SDS011;1916;51.798;12.246;2022-07-06T09:41:37;3.80;;;1.40;;
3801;SDS011;1916;51.798;12.246;2022-07-06T09:43:39;2.53;;;1.30;;
3801;SDS011;1916;51.798;12.246;2022-07-06T09:45:45;2.90;;;1.13;;
3801;SDS011;1916;51.798;12.246;2022-07-06T09:47:48;1.90;;;1.37;;
3801;SDS011;1916;51.798;12.246;2022-07-06T09:49:50;12.47;;;1.53;;
3801;SDS011;1916;51.798;12.246;2022-07-06T09:51:58;1.67;;;1.20;;
3801;SDS011;1916;51.798;12.246;2022-07-06T09:54:03;3.33;;;1.37;;
3801;SDS011;1916;51.798;12.246;2022-07-06T09:56:08;2.87;;;1.40;;
3801;SDS011;1916;51.798;12.246;2022-07-06T09:58:10;2.90;;;1.47;;
3801;SDS011;1916;51.798;12.246;2022-07-06T10:00:12;1.70;;;1.00;;
3801;SDS011;1916;51.798;12.246;2022-07-06T10:02:16;4.00;;;1.43;;
3801;SDS011;1916;51.798;12.246;2022-07-06T10:04:21;5.73;;;1.90;;
3801;SDS011;1916;51.798;12.246;2022-07-06T10:06:27;3.50;;;1.53;;
3801;SDS011;1916;51.798;12.246;2022-07-06T10:08:30;2.13;;;1.20;;
3801;SDS011;1916;51.798;12.246;2022-07-06T10:10:34;0.90;;;0.90;;
3801;SDS011;1916;51.798;12.246;2022-07-06T10:12:37;2.73;;;1.10;;
3801;SDS011;1916;51.798;12.246;2022-07-06T10:14:39;3.33;;;1.30;;
3801;SDS011;1916;51.798;12.246;2022-07-06T10:16:42;4.70;;;1.57;;
3801;SDS011;1916;51.798;12.246;2022-07-06T10:18:44;4.00;;;1.30;;
3801;SDS011;1916;51.798;12.246;2022-07-06T10:20:46;2.80;;;1.33;;
3801;SDS011;1916;51.798;12.246;2022-07-06T10:22:49;3.43;;;1.20;;
3801;SDS011;1916;51.798;12.246;2022-07-06T10:24:52;1.97;;;1.50;;
3801;SDS011;1916;51.798;12.246;2022-07-06T10:26:54;2.03;;;1.10;;
3801;SDS011;1916;51.798;12.246;2022-07-06T10:28:57;1.20;;;1.00;;
3801;SDS011;1916;51.798;12.246;2022-07-06T10:31:00;7.03;;;1.30;;
3801;SDS011;1916;51.798;12.246;2022-07-06T10:33:03;1.50;;;1.00;;
3801;SDS011;1916;51.798;12.246;2022-07-06T10:35:05;1.93;;;1.00;;
3801;SDS011;1916;51.798;12.246;2022-07-06T10:37:09;2.40;;;1.40;;
3801;SDS011;1916;51.798;12.246;2022-07-06T10:39:36;5.57;;;1.13;;
3801;SDS011;1916;51.798;12.246;2022-07-06T10:41:58;1.97;;;1.00;;
3801;SDS011;1916;51.798;12.246;2022-07-06T10:44:20;1.33;;;1.00;;
3801;SDS011;1916;51.798;12.246;2022-07-06T10:46:23;3.53;;;1.23;;
3801;SDS011;1916;51.798;12.246;2022-07-06T10:48:36;1.83;;;1.07;;
3801;SDS011;1916;51.798;12.246;2022-07-06T10:52:48;3.60;;;1.10;;
3801;SDS011;1916;51.798;12.246;2022-07-06T10:54:55;6.40;;;1.10;;
3801;SDS011;1916;51.798;12.246;2022-07-06T10:56:58;2.57;;;1.13;;
3801;SDS011;1916;51.798;12.246;2022-07-06T11:01:17;3.47;;;1.43;;
3801;SDS011;1916;51.798;12.246;2022-07-06T11:03:32;2.03;;;1.10;;
3801;SDS011;1916;51.798;12.246;2022-07-06T11:05:47;5.80;;;1.00;;
3801;SDS011;1916;51.798;12.246;2022-07-06T11:08:09;1.97;;;1.10;;
3801;SDS011;1916;51.798;12.246;2022-07-06T11:10:12;2.67;;;1.40;;
3801;SDS011;1916;51.798;12.246;2022-07-06T11:12:16;1.97;;;1.37;;
3801;SDS011;1916;51.798;12.246;2022-07-06T11:14:20;2.83;;;1.20;;
3801;SDS011;1916;51.798;12.246;2022-07-06T11:16:24;8.87;;;1.73;;
3801;SDS011;1916;51.798;12.246;2022-07-06T11:18:28;1.73;;;1.00;;
3801;SDS011;1916;51.798;12.246;2022-07-06T11:20:41;2.43;;;1.27;;
3801;SDS011;1916;51.798;12.246;2022-07-06T11:22:43;1.60;;;1.50;;
3801;SDS011;1916;51.798;12.246;2022-07-06T11:24:46;6.80;;;1.60;;
3801;SDS011;1916;51.798;12.246;2022-07-06T11:26:49;1.80;;;1.10;;
3801;SDS011;1916;51.798;12.246;2022-07-06T11:28:52;2.50;;;1.03;;
3801;SDS011;1916;51.798;12.246;2022-07-06T11:30:55;2.10;;;1.10;;
3801;SDS011;1916;51.798;12.246;2022-07-06T11:32:57;2.70;;;0.90;;
3801;SDS011;1916;51.798;12.246;2022-07-06T11:34:59;1.80;;;1.20;;
3801;SDS011;1916;51.798;12.246;2022-07-06T11:37:05;2.47;;;1.27;;
3801;SDS011;1916;51.798;12.246;2022-07-06T11:39:14;1.80;;;0.97;;
3801;SDS011;1916;51.798;12.246;2022-07-06T11:41:17;6.50;;;1.33;;
3801;SDS011;1916;51.798;12.246;2022-07-06T11:43:19;2.73;;;1.00;;
3801;SDS011;1916;51.798;12.246;2022-07-06T11:45:26;3.90;;;1.20;;
3801;SDS011;1916;51.798;12.246;2022-07-06T11:47:31;3.17;;;0.90;;
3801;SDS011;1916;51.798;12.246;2022-07-06T11:49:34;1.57;;;1.10;;
3801;SDS011;1916;51.798;12.246;2022-07-06T11:51:38;1.60;;;1.10;;
3801;SDS011;1916;51.798;12.246;2022-07-06T11:53:42;4.10;;;1.30;;
3801;SDS011;1916;51.798;12.246;2022-07-06T11:55:56;1.90;;;1.10;;
3801;SDS011;1916;51.798;12.246;2022-07-06T11:58:04;3.30;;;1.10;;
3801;SDS011;1916;51.798;12.246;2022-07-06T12:00:06;2.70;;;1.20;;
3801;SDS011;1916;51.798;12.246;2022-07-06T12:02:15;1.50;;;1.20;;
3801;SDS011;1916;51.798;12.246;2022-07-06T12:04:18;1.57;;;1.10;;
3801;SDS011;1916;51.798;12.246;2022-07-06T12:06:21;1.63;;;1.10;;
3801;SDS011;1916;51.798;12.246;2022-07-06T12:08:26;2.53;;;1.20;;
3801;SDS011;1916;51.798;12.246;2022-07-06T12:10:34;1.53;;;0.93;;
3801;SDS011;1916;51.798;12.246;2022-07-06T12:12:39;2.93;;;1.20;;
3801;SDS011;1916;51.798;12.246;2022-07-06T12:14:42;2.00;;;1.30;;
3801;SDS011;1916;51.798;12.246;2022-07-06T12:16:45;5.03;;;1.20;;
3801;SDS011;1916;51.798;12.246;2022-07-06T12:18:48;1.93;;;1.00;;
3801;SDS011;1916;51.798;12.246;2022-07-06T12:20:52;1.80;;;1.40;;
3801;SDS011;1916;51.798;12.246;2022-07-06T12:23:03;2.23;;;1.37;;
3801;SDS011;1916;51.798;12.246;2022-07-06T12:25:06;1.77;;;1.27;;
3801;SDS011;1916;51.798;12.246;2022-07-06T12:27:09;2.53;;;1.23;;
3801;SDS011;1916;51.798;12.246;2022-07-06T12:29:13;2.20;;;1.20;;
3801;SDS011;1916;51.798;12.246;2022-07-06T12:31:32;1.20;;;1.10;;
3801;SDS011;1916;51.798;12.246;2022-07-06T12:33:38;1.80;;;1.00;;
3801;SDS011;1916;51.798;12.246;2022-07-06T12:35:40;2.30;;;0.90;;
3801;SDS011;1916;51.798;12.246;2022-07-06T12:37:56;2.10;;;1.37;;
3801;SDS011;1916;51.798;12.246;2022-07-06T12:39:59;1.33;;;0.97;;
3801;SDS011;1916;51.798;12.246;2022-07-06T12:42:03;2.50;;;1.20;;